Terminal Aerodrome Forecast
Issued by NWS

Home | Current Version | Previous Version | Text Only | Print | Product List | Glossary On
Versions: 1 2 3 4 5 6 7 8 9 10 11 12 13 14 15 16 17 18 19
000
FTUS46 KSEW 242300
TAFHQM
TAF
KHQM 242320Z 2500/2524 28008KT P6SM VCSH SCT040 BKN060
      TEMPO 2500/2504 3SM -RA BR OVC030
     FM252000 32007KT P6SM SCT020 BKN040=

USA.gov is the U.S. government's official web portal to all federal, state and local government web resources and services.